sensor_id;sensor_type;location;lat;lon;timestamp;P1;durP1;ratioP1;P2;durP2;ratioP2
21266;SDS011;10791;53.108;18.326;2023-03-01T04:02:02;31.40;;;14.80;;
21266;SDS011;10791;53.108;18.326;2023-03-01T04:07:05;37.50;;;16.50;;
21266;SDS011;10791;53.108;18.326;2023-03-01T04:12:08;36.03;;;16.40;;
21266;SDS011;10791;53.108;18.326;2023-03-01T04:17:12;35.53;;;17.70;;
21266;SDS011;10791;53.108;18.326;2023-03-01T04:22:15;52.03;;;16.90;;
21266;SDS011;10791;53.108;18.326;2023-03-01T04:27:20;36.50;;;17.53;;
21266;SDS011;10791;53.108;18.326;2023-03-01T04:32:23;40.13;;;17.13;;
21266;SDS011;10791;53.108;18.326;2023-03-01T04:37:26;48.10;;;18.00;;
21266;SDS011;10791;53.108;18.326;2023-03-01T04:42:30;39.80;;;16.90;;
21266;SDS011;10791;53.108;18.326;2023-03-01T04:47:33;45.27;;;19.40;;
21266;SDS011;10791;53.108;18.326;2023-03-01T04:52:40;39.67;;;18.13;;
21266;SDS011;10791;53.108;18.326;2023-03-01T04:57:43;43.17;;;18.00;;
21266;SDS011;10791;53.108;18.326;2023-03-01T05:02:54;41.50;;;18.80;;
21266;SDS011;10791;53.108;18.326;2023-03-01T05:08:00;43.33;;;18.87;;
21266;SDS011;10791;53.108;18.326;2023-03-01T05:13:04;40.53;;;18.57;;
21266;SDS011;10791;53.108;18.326;2023-03-01T05:18:09;41.63;;;18.20;;
21266;SDS011;10791;53.108;18.326;2023-03-01T05:23:13;38.87;;;18.23;;
21266;SDS011;10791;53.108;18.326;2023-03-01T05:28:16;36.77;;;17.43;;
21266;SDS011;10791;53.108;18.326;2023-03-01T05:33:21;42.37;;;17.80;;
21266;SDS011;10791;53.108;18.326;2023-03-01T05:38:25;41.27;;;17.23;;
21266;SDS011;10791;53.108;18.326;2023-03-01T05:43:31;35.53;;;16.60;;
21266;SDS011;10791;53.108;18.326;2023-03-01T05:48:37;35.57;;;16.23;;
21266;SDS011;10791;53.108;18.326;2023-03-01T05:53:41;41.17;;;16.23;;
21266;SDS011;10791;53.108;18.326;2023-03-01T05:58:44;38.80;;;16.37;;
21266;SDS011;10791;53.108;18.326;2023-03-01T06:03:47;36.30;;;15.77;;
21266;SDS011;10791;53.108;18.326;2023-03-01T06:08:51;28.63;;;16.13;;
21266;SDS011;10791;53.108;18.326;2023-03-01T06:13:55;35.20;;;16.43;;
21266;SDS011;10791;53.108;18.326;2023-03-01T06:18:58;30.87;;;15.37;;
21266;SDS011;10791;53.108;18.326;2023-03-01T06:24:01;29.47;;;13.87;;
21266;SDS011;10791;53.108;18.326;2023-03-01T06:29:05;32.97;;;14.63;;
21266;SDS011;10791;53.108;18.326;2023-03-01T06:34:08;27.53;;;12.63;;
21266;SDS011;10791;53.108;18.326;2023-03-01T06:39:15;29.10;;;13.77;;
21266;SDS011;10791;53.108;18.326;2023-03-01T06:44:20;28.67;;;13.80;;
21266;SDS011;10791;53.108;18.326;2023-03-01T06:49:23;26.10;;;11.63;;
21266;SDS011;10791;53.108;18.326;2023-03-01T06:54:26;26.67;;;12.53;;
21266;SDS011;10791;53.108;18.326;2023-03-01T06:59:29;25.53;;;12.50;;
21266;SDS011;10791;53.108;18.326;2023-03-01T07:04:34;27.93;;;13.20;;
21266;SDS011;10791;53.108;18.326;2023-03-01T07:09:37;31.30;;;13.23;;
21266;SDS011;10791;53.108;18.326;2023-03-01T07:14:40;32.77;;;15.10;;
21266;SDS011;10791;53.108;18.326;2023-03-01T07:19:44;33.30;;;13.93;;
21266;SDS011;10791;53.108;18.326;2023-03-01T07:24:47;32.50;;;14.87;;
21266;SDS011;10791;53.108;18.326;2023-03-01T07:29:50;29.50;;;14.63;;
21266;SDS011;10791;53.108;18.326;2023-03-01T07:34:53;37.67;;;15.17;;
21266;SDS011;10791;53.108;18.326;2023-03-01T07:39:56;43.23;;;17.50;;
21266;SDS011;10791;53.108;18.326;2023-03-01T07:45:00;37.70;;;16.80;;
21266;SDS011;10791;53.108;18.326;2023-03-01T07:50:03;34.13;;;13.57;;
21266;SDS011;10791;53.108;18.326;2023-03-01T07:55:07;32.87;;;15.00;;
21266;SDS011;10791;53.108;18.326;2023-03-01T08:00:11;26.80;;;12.97;;
21266;SDS011;10791;53.108;18.326;2023-03-01T08:05:15;25.23;;;12.80;;
21266;SDS011;10791;53.108;18.326;2023-03-01T08:10:18;30.87;;;14.10;;
21266;SDS011;10791;53.108;18.326;2023-03-01T08:15:21;29.30;;;14.20;;
21266;SDS011;10791;53.108;18.326;2023-03-01T08:20:24;27.13;;;13.40;;
21266;SDS011;10791;53.108;18.326;2023-03-01T08:25:27;26.53;;;12.97;;
21266;SDS011;10791;53.108;18.326;2023-03-01T08:30:31;29.47;;;14.93;;
21266;SDS011;10791;53.108;18.326;2023-03-01T08:35:34;29.47;;;15.00;;
21266;SDS011;10791;53.108;18.326;2023-03-01T08:40:37;26.73;;;14.03;;
21266;SDS011;10791;53.108;18.326;2023-03-01T08:45:40;32.23;;;14.33;;
21266;SDS011;10791;53.108;18.326;2023-03-01T08:50:44;32.97;;;14.83;;
21266;SDS011;10791;53.108;18.326;2023-03-01T08:55:47;28.83;;;15.70;;
21266;SDS011;10791;53.108;18.326;2023-03-01T09:00:51;31.83;;;15.93;;
21266;SDS011;10791;53.108;18.326;2023-03-01T09:05:59;32.30;;;15.90;;
21266;SDS011;10791;53.108;18.326;2023-03-01T09:11:05;28.93;;;14.97;;
21266;SDS011;10791;53.108;18.326;2023-03-01T09:16:10;32.50;;;15.43;;
21266;SDS011;10791;53.108;18.326;2023-03-01T09:21:16;29.27;;;15.00;;
21266;SDS011;10791;53.108;18.326;2023-03-01T09:26:31;24.43;;;13.83;;
21266;SDS011;10791;53.108;18.326;2023-03-01T09:31:35;31.87;;;14.33;;
21266;SDS011;10791;53.108;18.326;2023-03-01T09:36:38;23.40;;;13.53;;
21266;SDS011;10791;53.108;18.326;2023-03-01T09:46:50;31.47;;;15.17;;
